sensor_id;sensor_type;location;lat;lon;timestamp;temperature;humidity
2603;DHT22;1311;47.966;7.958;2022-09-23T00:01:37;8.20;99.90
2603;DHT22;1311;47.966;7.958;2022-09-23T00:04:05;8.20;99.90
2603;DHT22;1311;47.966;7.958;2022-09-23T00:06:31;8.30;99.90
2603;DHT22;1311;47.966;7.958;2022-09-23T00:08:58;8.30;99.90
2603;DHT22;1311;47.966;7.958;2022-09-23T00:11:25;8.30;99.90
2603;DHT22;1311;47.966;7.958;2022-09-23T00:13:53;8.30;99.90
2603;DHT22;1311;47.966;7.958;2022-09-23T00:16:20;8.30;99.90
2603;DHT22;1311;47.966;7.958;2022-09-23T00:18:47;8.20;99.90
2603;DHT22;1311;47.966;7.958;2022-09-23T00:21:16;8.30;99.90
2603;DHT22;1311;47.966;7.958;2022-09-23T00:23:43;8.20;99.90
2603;DHT22;1311;47.966;7.958;2022-09-23T00:26:10;8.30;99.90
2603;DHT22;1311;47.966;7.958;2022-09-23T00:28:37;8.20;99.90
2603;DHT22;1311;47.966;7.958;2022-09-23T00:31:05;8.20;99.90
2603;DHT22;1311;47.966;7.958;2022-09-23T00:33:32;8.10;99.90
2603;DHT22;1311;47.966;7.958;2022-09-23T00:35:58;8.00;99.90
2603;DHT22;1311;47.966;7.958;2022-09-23T00:38:27;8.00;99.90
2603;DHT22;1311;47.966;7.958;2022-09-23T00:40:54;8.00;99.90
2603;DHT22;1311;47.966;7.958;2022-09-23T00:43:34;8.00;99.90
2603;DHT22;1311;47.966;7.958;2022-09-23T00:46:02;8.00;99.90
2603;DHT22;1311;47.966;7.958;2022-09-23T00:48:28;8.00;99.90
2603;DHT22;1311;47.966;7.958;2022-09-23T00:50:55;8.00;99.90
2603;DHT22;1311;47.966;7.958;2022-09-23T00:53:22;8.00;99.90
2603;DHT22;1311;47.966;7.958;2022-09-23T00:55:53;8.00;99.90
2603;DHT22;1311;47.966;7.958;2022-09-23T00:58:23;7.90;99.90
2603;DHT22;1311;47.966;7.958;2022-09-23T01:00:52;7.90;99.90
2603;DHT22;1311;47.966;7.958;2022-09-23T01:03:19;7.90;99.90
2603;DHT22;1311;47.966;7.958;2022-09-23T01:05:47;7.90;99.90
2603;DHT22;1311;47.966;7.958;2022-09-23T01:08:14;7.80;99.90
2603;DHT22;1311;47.966;7.958;2022-09-23T01:10:42;7.80;99.90
2603;DHT22;1311;47.966;7.958;2022-09-23T01:13:17;7.90;99.90
2603;DHT22;1311;47.966;7.958;2022-09-23T01:15:47;7.80;99.90
2603;DHT22;1311;47.966;7.958;2022-09-23T01:18:18;7.80;99.90
2603;DHT22;1311;47.966;7.958;2022-09-23T01:20:55;7.80;99.90
2603;DHT22;1311;47.966;7.958;2022-09-23T01:23:28;7.80;99.90
2603;DHT22;1311;47.966;7.958;2022-09-23T01:26:11;7.80;99.90
2603;DHT22;1311;47.966;7.958;2022-09-23T01:28:48;7.70;99.90
2603;DHT22;1311;47.966;7.958;2022-09-23T01:31:22;7.70;99.90
2603;DHT22;1311;47.966;7.958;2022-09-23T01:33:51;7.70;99.90
2603;DHT22;1311;47.966;7.958;2022-09-23T01:36:20;7.70;99.90
2603;DHT22;1311;47.966;7.958;2022-09-23T01:38:51;7.60;99.90
2603;DHT22;1311;47.966;7.958;2022-09-23T01:41:22;7.70;99.90
2603;DHT22;1311;47.966;7.958;2022-09-23T01:43:56;7.70;99.90
2603;DHT22;1311;47.966;7.958;2022-09-23T01:46:25;7.70;99.90
2603;DHT22;1311;47.966;7.958;2022-09-23T01:48:54;7.70;99.90
2603;DHT22;1311;47.966;7.958;2022-09-23T01:51:24;7.70;99.90
2603;DHT22;1311;47.966;7.958;2022-09-23T01:53:53;7.70;99.90
2603;DHT22;1311;47.966;7.958;2022-09-23T01:56:22;7.60;99.90
2603;DHT22;1311;47.966;7.958;2022-09-23T01:58:50;7.60;99.90
2603;DHT22;1311;47.966;7.958;2022-09-23T02:01:20;7.60;99.90
2603;DHT22;1311;47.966;7.958;2022-09-23T02:03:51;7.60;99.90
2603;DHT22;1311;47.966;7.958;2022-09-23T02:06:21;7.60;99.90
2603;DHT22;1311;47.966;7.958;2022-09-23T02:08:50;7.60;99.90
2603;DHT22;1311;47.966;7.958;2022-09-23T02:11:18;7.60;99.90
2603;DHT22;1311;47.966;7.958;2022-09-23T02:13:47;7.50;99.90
2603;DHT22;1311;47.966;7.958;2022-09-23T02:16:18;7.60;99.90
2603;DHT22;1311;47.966;7.958;2022-09-23T02:18:48;7.50;99.90
2603;DHT22;1311;47.966;7.958;2022-09-23T02:21:18;7.50;99.90
2603;DHT22;1311;47.966;7.958;2022-09-23T02:23:48;7.50;99.90
2603;DHT22;1311;47.966;7.958;2022-09-23T02:26:17;7.50;99.90
2603;DHT22;1311;47.966;7.958;2022-09-23T02:28:49;7.40;99.90
2603;DHT22;1311;47.966;7.958;2022-09-23T02:31:19;7.50;99.90
2603;DHT22;1311;47.966;7.958;2022-09-23T02:33:52;7.40;99.90
2603;DHT22;1311;47.966;7.958;2022-09-23T02:36:21;7.40;99.90
2603;DHT22;1311;47.966;7.958;2022-09-23T02:38:51;7.30;99.90
2603;DHT22;1311;47.966;7.958;2022-09-23T02:41:22;7.40;99.90
2603;DHT22;1311;47.966;7.958;2022-09-23T02:43:51;7.30;99.90
2603;DHT22;1311;47.966;7.958;2022-09-23T02:46:19;7.30;99.90
2603;DHT22;1311;47.966;7.958;2022-09-23T02:48:47;7.20;99.90
2603;DHT22;1311;47.966;7.958;2022-09-23T02:51:14;7.30;99.90
2603;DHT22;1311;47.966;7.958;2022-09-23T02:53:43;7.30;99.90
2603;DHT22;1311;47.966;7.958;2022-09-23T02:56:12;7.20;99.90
2603;DHT22;1311;47.966;7.958;2022-09-23T02:58:39;7.20;99.90
2603;DHT22;1311;47.966;7.958;2022-09-23T03:01:06;7.20;99.90
2603;DHT22;1311;47.966;7.958;2022-09-23T03:03:37;7.20;99.90
2603;DHT22;1311;47.966;7.958;2022-09-23T03:06:06;7.10;99.90
2603;DHT22;1311;47.966;7.958;2022-09-23T03:08:38;7.20;99.90
2603;DHT22;1311;47.966;7.958;2022-09-23T03:11:08;7.20;99.90
2603;DHT22;1311;47.966;7.958;2022-09-23T03:13:39;7.20;99.90
2603;DHT22;1311;47.966;7.958;2022-09-23T03:16:14;7.10;99.90
2603;DHT22;1311;47.966;7.958;2022-09-23T03:18:44;7.10;99.90
2603;DHT22;1311;47.966;7.958;2022-09-23T03:21:12;7.00;99.90
2603;DHT22;1311;47.966;7.958;2022-09-23T03:23:40;7.10;99.90
2603;DHT22;1311;47.966;7.958;2022-09-23T03:26:10;7.10;99.90
2603;DHT22;1311;47.966;7.958;2022-09-23T03:28:38;7.10;99.90
2603;DHT22;1311;47.966;7.958;2022-09-23T03:31:07;7.10;99.90
2603;DHT22;1311;47.966;7.958;2022-09-23T03:33:35;7.10;99.90
2603;DHT22;1311;47.966;7.958;2022-09-23T03:36:04;7.20;99.90
2603;DHT22;1311;47.966;7.958;2022-09-23T03:38:50;7.10;99.90
2603;DHT22;1311;47.966;7.958;2022-09-23T03:41:22;7.10;99.90
2603;DHT22;1311;47.966;7.958;2022-09-23T03:43:53;7.20;99.90
2603;DHT22;1311;47.966;7.958;2022-09-23T03:46:23;7.20;99.90
2603;DHT22;1311;47.966;7.958;2022-09-23T03:48:49;7.10;99.90
2603;DHT22;1311;47.966;7.958;2022-09-23T03:51:18;7.20;99.90
2603;DHT22;1311;47.966;7.958;2022-09-23T03:53:45;7.10;99.90
2603;DHT22;1311;47.966;7.958;2022-09-23T03:56:12;7.10;99.90
2603;DHT22;1311;47.966;7.958;2022-09-23T03:58:40;7.00;99.90
2603;DHT22;1311;47.966;7.958;2022-09-23T04:01:07;7.00;99.90
2603;DHT22;1311;47.966;7.958;2022-09-23T04:03:33;6.90;99.90
2603;DHT22;1311;47.966;7.958;2022-09-23T04:06:00;7.00;99.90
2603;DHT22;1311;47.966;7.958;2022-09-23T04:08:26;6.90;99.90
2603;DHT22;1311;47.966;7.958;2022-09-23T04:13:20;6.90;99.90
2603;DHT22;1311;47.966;7.958;2022-09-23T04:15:49;6.90;99.90
2603;DHT22;1311;47.966;7.958;2022-09-23T04:18:16;6.90;99.90
2603;DHT22;1311;47.966;7.958;2022-09-23T04:20:43;6.90;99.90
2603;DHT22;1311;47.966;7.958;2022-09-23T04:23:09;6.80;99.90
2603;DHT22;1311;47.966;7.958;2022-09-23T04:25:42;6.80;99.90
2603;DHT22;1311;47.966;7.958;2022-09-23T04:30:37;6.90;99.90
2603;DHT22;1311;47.966;7.958;2022-09-23T04:35:34;6.90;99.90
2603;DHT22;1311;47.966;7.958;2022-09-23T04:40:28;7.00;99.90
2603;DHT22;1311;47.966;7.958;2022-09-23T04:42:55;7.10;99.90
2603;DHT22;1311;47.966;7.958;2022-09-23T04:45:22;7.10;99.90
2603;DHT22;1311;47.966;7.958;2022-09-23T04:47:48;7.10;99.90
2603;DHT22;1311;47.966;7.958;2022-09-23T04:50:15;7.10;99.90
2603;DHT22;1311;47.966;7.958;2022-09-23T04:52:43;7.20;99.90
2603;DHT22;1311;47.966;7.958;2022-09-23T04:57:36;7.10;99.90
2603;DHT22;1311;47.966;7.958;2022-09-23T05:02:30;7.30;99.90
2603;DHT22;1311;47.966;7.958;2022-09-23T05:04:59;7.30;99.90
2603;DHT22;1311;47.966;7.958;2022-09-23T05:07:26;7.40;99.90
2603;DHT22;1311;47.966;7.958;2022-09-23T05:09:54;7.40;99.90
2603;DHT22;1311;47.966;7.958;2022-09-23T05:12:21;7.50;99.90
2603;DHT22;1311;47.966;7.958;2022-09-23T05:14:47;7.60;99.90
2603;DHT22;1311;47.966;7.958;2022-09-23T05:17:14;7.60;99.90
2603;DHT22;1311;47.966;7.958;2022-09-23T05:19:40;7.60;99.90
2603;DHT22;1311;47.966;7.958;2022-09-23T05:22:07;7.70;99.90
2603;DHT22;1311;47.966;7.958;2022-09-23T05:27:02;7.80;99.90
2603;DHT22;1311;47.966;7.958;2022-09-23T05:29:31;7.80;99.90
2603;DHT22;1311;47.966;7.958;2022-09-23T05:31:58;7.80;99.90
2603;DHT22;1311;47.966;7.958;2022-09-23T05:34:25;7.90;99.90
2603;DHT22;1311;47.966;7.958;2022-09-23T05:36:52;8.00;99.90
2603;DHT22;1311;47.966;7.958;2022-09-23T05:39:19;8.00;99.90
2603;DHT22;1311;47.966;7.958;2022-09-23T05:41:45;8.20;99.90
2603;DHT22;1311;47.966;7.958;2022-09-23T05:44:14;8.20;99.90
2603;DHT22;1311;47.966;7.958;2022-09-23T05:46:41;8.30;99.90
2603;DHT22;1311;47.966;7.958;2022-09-23T05:49:07;8.40;99.90
2603;DHT22;1311;47.966;7.958;2022-09-23T05:51:34;8.40;99.90
2603;DHT22;1311;47.966;7.958;2022-09-23T05:54:01;8.60;99.90
2603;DHT22;1311;47.966;7.958;2022-09-23T05:56:29;8.70;99.90
2603;DHT22;1311;47.966;7.958;2022-09-23T05:58:57;8.80;99.90
2603;DHT22;1311;47.966;7.958;2022-09-23T06:01:26;8.90;99.90
2603;DHT22;1311;47.966;7.958;2022-09-23T06:03:53;9.10;99.90
2603;DHT22;1311;47.966;7.958;2022-09-23T06:06:21;9.20;99.90
2603;DHT22;1311;47.966;7.958;2022-09-23T06:08:50;9.30;99.90
2603;DHT22;1311;47.966;7.958;2022-09-23T06:11:17;9.30;99.90
2603;DHT22;1311;47.966;7.958;2022-09-23T06:13:45;9.40;99.90
2603;DHT22;1311;47.966;7.958;2022-09-23T06:16:13;9.50;99.90
2603;DHT22;1311;47.966;7.958;2022-09-23T06:18:42;9.50;99.90
2603;DHT22;1311;47.966;7.958;2022-09-23T06:21:09;9.60;99.90
2603;DHT22;1311;47.966;7.958;2022-09-23T06:23:37;9.70;99.90
2603;DHT22;1311;47.966;7.958;2022-09-23T06:26:04;9.80;99.90
2603;DHT22;1311;47.966;7.958;2022-09-23T06:28:31;9.90;99.90
2603;DHT22;1311;47.966;7.958;2022-09-23T06:30:58;10.00;99.90
2603;DHT22;1311;47.966;7.958;2022-09-23T06:33:25;10.00;99.90
2603;DHT22;1311;47.966;7.958;2022-09-23T06:35:56;10.00;99.90
2603;DHT22;1311;47.966;7.958;2022-09-23T06:38:23;10.10;99.90
2603;DHT22;1311;47.966;7.958;2022-09-23T06:40:50;10.20;99.90
2603;DHT22;1311;47.966;7.958;2022-09-23T06:43:16;10.30;99.90
2603;DHT22;1311;47.966;7.958;2022-09-23T06:45:43;10.30;99.90
2603;DHT22;1311;47.966;7.958;2022-09-23T06:48:10;10.40;99.90
2603;DHT22;1311;47.966;7.958;2022-09-23T06:50:37;10.50;99.90
2603;DHT22;1311;47.966;7.958;2022-09-23T06:53:05;10.50;99.90
2603;DHT22;1311;47.966;7.958;2022-09-23T06:55:31;10.50;99.90
2603;DHT22;1311;47.966;7.958;2022-09-23T06:57:58;10.60;99.90
2603;DHT22;1311;47.966;7.958;2022-09-23T07:00:24;10.70;99.90
2603;DHT22;1311;47.966;7.958;2022-09-23T07:02:51;10.70;99.90
2603;DHT22;1311;47.966;7.958;2022-09-23T07:05:19;11.30;99.90
2603;DHT22;1311;47.966;7.958;2022-09-23T07:07:46;10.80;99.90
2603;DHT22;1311;47.966;7.958;2022-09-23T07:10:14;10.90;99.90
2603;DHT22;1311;47.966;7.958;2022-09-23T07:12:41;10.90;99.90
2603;DHT22;1311;47.966;7.958;2022-09-23T07:15:08;11.00;99.90
2603;DHT22;1311;47.966;7.958;2022-09-23T07:17:35;11.10;99.90
2603;DHT22;1311;47.966;7.958;2022-09-23T07:20:01;11.20;99.90
2603;DHT22;1311;47.966;7.958;2022-09-23T07:22:28;11.20;99.90
2603;DHT22;1311;47.966;7.958;2022-09-23T07:24:55;11.30;99.90
2603;DHT22;1311;47.966;7.958;2022-09-23T07:27:25;11.40;99.90
2603;DHT22;1311;47.966;7.958;2022-09-23T07:29:52;11.50;99.90
2603;DHT22;1311;47.966;7.958;2022-09-23T07:32:20;11.60;99.90
2603;DHT22;1311;47.966;7.958;2022-09-23T07:34:47;11.70;99.90
2603;DHT22;1311;47.966;7.958;2022-09-23T07:42:09;11.90;99.90
2603;DHT22;1311;47.966;7.958;2022-09-23T07:44:39;12.00;99.90
2603;DHT22;1311;47.966;7.958;2022-09-23T07:47:07;12.10;99.90
2603;DHT22;1311;47.966;7.958;2022-09-23T07:49:34;12.20;99.90
2603;DHT22;1311;47.966;7.958;2022-09-23T07:52:01;12.30;99.90
2603;DHT22;1311;47.966;7.958;2022-09-23T07:54:29;12.30;99.90
2603;DHT22;1311;47.966;7.958;2022-09-23T07:59:22;12.40;99.90
2603;DHT22;1311;47.966;7.958;2022-09-23T08:01:52;12.40;99.90
2603;DHT22;1311;47.966;7.958;2022-09-23T08:04:20;12.40;99.90
2603;DHT22;1311;47.966;7.958;2022-09-23T08:06:47;12.50;99.90
2603;DHT22;1311;47.966;7.958;2022-09-23T08:09:14;12.60;99.90
2603;DHT22;1311;47.966;7.958;2022-09-23T08:11:41;12.70;99.90
2603;DHT22;1311;47.966;7.958;2022-09-23T08:14:08;12.70;99.90
2603;DHT22;1311;47.966;7.958;2022-09-23T08:16:35;12.80;99.90
2603;DHT22;1311;47.966;7.958;2022-09-23T08:19:03;12.90;99.90
2603;DHT22;1311;47.966;7.958;2022-09-23T08:21:29;13.00;99.90
2603;DHT22;1311;47.966;7.958;2022-09-23T08:23:56;13.00;99.90
2603;DHT22;1311;47.966;7.958;2022-09-23T08:26:23;13.10;99.90
2603;DHT22;1311;47.966;7.958;2022-09-23T08:28:50;13.30;99.90
2603;DHT22;1311;47.966;7.958;2022-09-23T08:31:18;13.30;99.90
2603;DHT22;1311;47.966;7.958;2022-09-23T08:33:45;13.40;99.90
2603;DHT22;1311;47.966;7.958;2022-09-23T08:36:13;13.60;99.90
2603;DHT22;1311;47.966;7.958;2022-09-23T08:38:40;13.70;99.90
2603;DHT22;1311;47.966;7.958;2022-09-23T08:41:08;13.80;99.90
2603;DHT22;1311;47.966;7.958;2022-09-23T08:43:36;13.90;99.90
2603;DHT22;1311;47.966;7.958;2022-09-23T08:46:05;16.30;99.90
2603;DHT22;1311;47.966;7.958;2022-09-23T08:48:35;14.20;99.90
2603;DHT22;1311;47.966;7.958;2022-09-23T08:51:04;14.30;99.90
2603;DHT22;1311;47.966;7.958;2022-09-23T08:53:33;13.90;99.90
2603;DHT22;1311;47.966;7.958;2022-09-23T08:56:02;14.40;99.90
2603;DHT22;1311;47.966;7.958;2022-09-23T08:58:32;14.50;99.90
2603;DHT22;1311;47.966;7.958;2022-09-23T09:01:06;15.80;99.90
2603;DHT22;1311;47.966;7.958;2022-09-23T09:03:35;14.70;99.90
2603;DHT22;1311;47.966;7.958;2022-09-23T09:06:05;14.80;99.90
2603;DHT22;1311;47.966;7.958;2022-09-23T09:08:34;14.90;99.90
2603;DHT22;1311;47.966;7.958;2022-09-23T09:11:01;15.20;99.90
2603;DHT22;1311;47.966;7.958;2022-09-23T09:13:29;15.60;99.90
2603;DHT22;1311;47.966;7.958;2022-09-23T09:16:13;15.40;99.90
2603;DHT22;1311;47.966;7.958;2022-09-23T09:18:43;15.40;99.90
2603;DHT22;1311;47.966;7.958;2022-09-23T09:21:11;15.60;99.90
2603;DHT22;1311;47.966;7.958;2022-09-23T09:23:42;15.80;99.90
2603;DHT22;1311;47.966;7.958;2022-09-23T09:26:10;15.80;99.90
2603;DHT22;1311;47.966;7.958;2022-09-23T09:28:39;15.90;99.90
2603;DHT22;1311;47.966;7.958;2022-09-23T09:31:13;15.90;99.90
2603;DHT22;1311;47.966;7.958;2022-09-23T09:33:47;16.10;99.90
2603;DHT22;1311;47.966;7.958;2022-09-23T09:36:18;16.20;99.90
2603;DHT22;1311;47.966;7.958;2022-09-23T09:38:49;16.30;99.90
2603;DHT22;1311;47.966;7.958;2022-09-23T09:41:17;15.90;99.90
2603;DHT22;1311;47.966;7.958;2022-09-23T09:43:46;16.40;99.90
2603;DHT22;1311;47.966;7.958;2022-09-23T09:46:22;16.50;99.90
2603;DHT22;1311;47.966;7.958;2022-09-23T09:48:54;16.60;99.90
2603;DHT22;1311;47.966;7.958;2022-09-23T09:51:22;16.70;99.90
2603;DHT22;1311;47.966;7.958;2022-09-23T09:53:50;16.80;99.90
2603;DHT22;1311;47.966;7.958;2022-09-23T09:56:18;16.90;99.90
2603;DHT22;1311;47.966;7.958;2022-09-23T09:58:47;17.00;99.90
2603;DHT22;1311;47.966;7.958;2022-09-23T10:01:18;17.00;99.90
2603;DHT22;1311;47.966;7.958;2022-09-23T10:03:45;17.10;99.90
2603;DHT22;1311;47.966;7.958;2022-09-23T10:06:13;17.10;99.90
2603;DHT22;1311;47.966;7.958;2022-09-23T10:08:40;17.20;99.90
2603;DHT22;1311;47.966;7.958;2022-09-23T10:11:14;17.20;99.90
2603;DHT22;1311;47.966;7.958;2022-09-23T10:13:42;17.20;99.90
2603;DHT22;1311;47.966;7.958;2022-09-23T10:16:25;17.40;99.90
2603;DHT22;1311;47.966;7.958;2022-09-23T10:18:52;17.40;99.90
2603;DHT22;1311;47.966;7.958;2022-09-23T10:21:22;17.40;99.90
2603;DHT22;1311;47.966;7.958;2022-09-23T10:23:49;17.60;99.90
2603;DHT22;1311;47.966;7.958;2022-09-23T10:26:24;17.70;99.90
2603;DHT22;1311;47.966;7.958;2022-09-23T10:28:52;17.90;99.90
2603;DHT22;1311;47.966;7.958;2022-09-23T10:31:21;18.00;99.90
2603;DHT22;1311;47.966;7.958;2022-09-23T10:33:50;18.20;99.90
2603;DHT22;1311;47.966;7.958;2022-09-23T10:36:19;18.20;99.90
2603;DHT22;1311;47.966;7.958;2022-09-23T10:38:46;18.40;99.90
2603;DHT22;1311;47.966;7.958;2022-09-23T10:41:19;18.40;99.90
2603;DHT22;1311;47.966;7.958;2022-09-23T10:44:10;18.50;99.90
2603;DHT22;1311;47.966;7.958;2022-09-23T10:47:01;18.50;99.90
2603;DHT22;1311;47.966;7.958;2022-09-23T10:49:51;18.40;99.90
2603;DHT22;1311;47.966;7.958;2022-09-23T10:52:29;18.50;99.90
2603;DHT22;1311;47.966;7.958;2022-09-23T10:55:04;18.50;99.90
2603;DHT22;1311;47.966;7.958;2022-09-23T10:57:37;18.60;99.90
2603;DHT22;1311;47.966;7.958;2022-09-23T11:03:10;18.70;99.90
2603;DHT22;1311;47.966;7.958;2022-09-23T11:05:43;18.80;99.90
2603;DHT22;1311;47.966;7.958;2022-09-23T11:08:22;18.80;99.90
2603;DHT22;1311;47.966;7.958;2022-09-23T11:10:56;19.00;99.90
2603;DHT22;1311;47.966;7.958;2022-09-23T11:15:55;19.30;99.90
2603;DHT22;1311;47.966;7.958;2022-09-23T11:18:30;19.30;99.90
2603;DHT22;1311;47.966;7.958;2022-09-23T11:25:54;19.50;99.90
2603;DHT22;1311;47.966;7.958;2022-09-23T11:28:33;19.60;99.90
2603;DHT22;1311;47.966;7.958;2022-09-23T11:31:05;19.70;99.90
2603;DHT22;1311;47.966;7.958;2022-09-23T11:33:37;19.80;99.90
2603;DHT22;1311;47.966;7.958;2022-09-23T11:36:07;19.80;99.90
2603;DHT22;1311;47.966;7.958;2022-09-23T11:38:36;19.80;99.90
2603;DHT22;1311;47.966;7.958;2022-09-23T11:41:11;19.80;99.90
2603;DHT22;1311;47.966;7.958;2022-09-23T11:43:39;20.00;99.90
2603;DHT22;1311;47.966;7.958;2022-09-23T11:46:10;20.10;99.90
2603;DHT22;1311;47.966;7.958;2022-09-23T11:48:40;20.20;99.90
2603;DHT22;1311;47.966;7.958;2022-09-23T11:51:09;20.20;99.90
2603;DHT22;1311;47.966;7.958;2022-09-23T11:53:39;20.40;99.90
2603;DHT22;1311;47.966;7.958;2022-09-23T11:56:10;20.60;99.90
2603;DHT22;1311;47.966;7.958;2022-09-23T11:58:41;20.60;99.90
2603;DHT22;1311;47.966;7.958;2022-09-23T12:01:12;20.70;99.90
2603;DHT22;1311;47.966;7.958;2022-09-23T12:03:43;21.00;99.90
2603;DHT22;1311;47.966;7.958;2022-09-23T12:06:13;21.00;99.90
2603;DHT22;1311;47.966;7.958;2022-09-23T12:08:40;21.00;99.90
2603;DHT22;1311;47.966;7.958;2022-09-23T12:11:10;21.20;99.90
2603;DHT22;1311;47.966;7.958;2022-09-23T12:13:43;21.30;99.90
2603;DHT22;1311;47.966;7.958;2022-09-23T12:16:26;21.40;99.90
2603;DHT22;1311;47.966;7.958;2022-09-23T12:18:58;21.50;99.90
2603;DHT22;1311;47.966;7.958;2022-09-23T12:21:32;21.60;99.90
2603;DHT22;1311;47.966;7.958;2022-09-23T12:24:13;21.60;99.90
2603;DHT22;1311;47.966;7.958;2022-09-23T12:26:48;21.70;99.90
2603;DHT22;1311;47.966;7.958;2022-09-23T12:29:15;21.60;99.90
2603;DHT22;1311;47.966;7.958;2022-09-23T12:31:43;21.60;99.90
2603;DHT22;1311;47.966;7.958;2022-09-23T12:34:18;21.50;99.90
2603;DHT22;1311;47.966;7.958;2022-09-23T12:36:46;21.50;99.90
2603;DHT22;1311;47.966;7.958;2022-09-23T12:39:13;21.40;99.90
2603;DHT22;1311;47.966;7.958;2022-09-23T12:41:42;21.60;99.90
2603;DHT22;1311;47.966;7.958;2022-09-23T12:44:14;21.60;99.90
2603;DHT22;1311;47.966;7.958;2022-09-23T12:47:35;21.60;99.90
2603;DHT22;1311;47.966;7.958;2022-09-23T12:56:16;21.40;99.90
2603;DHT22;1311;47.966;7.958;2022-09-23T12:58:59;21.40;99.90
2603;DHT22;1311;47.966;7.958;2022-09-23T13:01:26;21.40;99.90
2603;DHT22;1311;47.966;7.958;2022-09-23T13:03:56;21.20;99.90
2603;DHT22;1311;47.966;7.958;2022-09-23T13:06:42;21.00;99.90
2603;DHT22;1311;47.966;7.958;2022-09-23T13:09:09;21.00;99.90
2603;DHT22;1311;47.966;7.958;2022-09-23T13:11:38;20.90;99.90
2603;DHT22;1311;47.966;7.958;2022-09-23T13:14:08;20.80;99.90
2603;DHT22;1311;47.966;7.958;2022-09-23T13:16:39;20.70;99.90
2603;DHT22;1311;47.966;7.958;2022-09-23T13:19:40;20.80;99.90
2603;DHT22;1311;47.966;7.958;2022-09-23T13:22:02;20.80;99.90
2603;DHT22;1311;47.966;7.958;2022-09-23T13:24:42;21.00;99.90
2603;DHT22;1311;47.966;7.958;2022-09-23T13:27:14;21.20;99.90
2603;DHT22;1311;47.966;7.958;2022-09-23T13:29:41;21.20;99.90
2603;DHT22;1311;47.966;7.958;2022-09-23T13:32:10;21.30;99.90
2603;DHT22;1311;47.966;7.958;2022-09-23T13:34:38;21.10;99.90
2603;DHT22;1311;47.966;7.958;2022-09-23T13:37:12;21.10;99.90
2603;DHT22;1311;47.966;7.958;2022-09-23T13:39:42;21.10;99.90
2603;DHT22;1311;47.966;7.958;2022-09-23T13:42:09;21.10;99.90
2603;DHT22;1311;47.966;7.958;2022-09-23T13:44:40;21.20;99.90
2603;DHT22;1311;47.966;7.958;2022-09-23T13:47:09;21.30;99.90
2603;DHT22;1311;47.966;7.958;2022-09-23T13:49:39;21.20;99.90
2603;DHT22;1311;47.966;7.958;2022-09-23T13:52:06;21.30;99.90
2603;DHT22;1311;47.966;7.958;2022-09-23T13:54:45;21.20;99.90
2603;DHT22;1311;47.966;7.958;2022-09-23T13:57:20;21.20;99.90
2603;DHT22;1311;47.966;7.958;2022-09-23T13:59:49;21.20;99.90
2603;DHT22;1311;47.966;7.958;2022-09-23T14:02:16;21.30;99.90
2603;DHT22;1311;47.966;7.958;2022-09-23T14:04:44;21.40;99.90
2603;DHT22;1311;47.966;7.958;2022-09-23T14:07:11;21.40;99.90
2603;DHT22;1311;47.966;7.958;2022-09-23T14:09:39;21.30;99.90
2603;DHT22;1311;47.966;7.958;2022-09-23T14:12:08;21.30;99.90
2603;DHT22;1311;47.966;7.958;2022-09-23T14:14:35;21.20;99.90
2603;DHT22;1311;47.966;7.958;2022-09-23T14:17:02;21.00;99.90
2603;DHT22;1311;47.966;7.958;2022-09-23T14:19:32;21.00;99.90
2603;DHT22;1311;47.966;7.958;2022-09-23T14:22:03;20.90;99.90
2603;DHT22;1311;47.966;7.958;2022-09-23T14:24:30;20.80;99.90
2603;DHT22;1311;47.966;7.958;2022-09-23T14:29:25;20.70;99.90
2603;DHT22;1311;47.966;7.958;2022-09-23T14:31:54;20.70;99.90
2603;DHT22;1311;47.966;7.958;2022-09-23T14:36:49;20.60;99.90
2603;DHT22;1311;47.966;7.958;2022-09-23T14:39:35;20.60;99.90
2603;DHT22;1311;47.966;7.958;2022-09-23T14:44:32;20.60;99.90
2603;DHT22;1311;47.966;7.958;2022-09-23T14:46:59;20.60;99.90
2603;DHT22;1311;47.966;7.958;2022-09-23T14:49:27;20.60;99.90
2603;DHT22;1311;47.966;7.958;2022-09-23T14:51:54;20.50;99.90
2603;DHT22;1311;47.966;7.958;2022-09-23T14:54:22;20.50;99.90
2603;DHT22;1311;47.966;7.958;2022-09-23T14:56:55;20.50;99.90
2603;DHT22;1311;47.966;7.958;2022-09-23T14:59:23;20.40;99.90
2603;DHT22;1311;47.966;7.958;2022-09-23T15:01:51;20.40;99.90
2603;DHT22;1311;47.966;7.958;2022-09-23T15:04:26;20.80;99.90
2603;DHT22;1311;47.966;7.958;2022-09-23T15:06:55;20.40;99.90
2603;DHT22;1311;47.966;7.958;2022-09-23T15:09:24;20.30;99.90
2603;DHT22;1311;47.966;7.958;2022-09-23T15:11:56;20.20;99.90
2603;DHT22;1311;47.966;7.958;2022-09-23T15:14:24;20.00;99.90
2603;DHT22;1311;47.966;7.958;2022-09-23T15:16:51;20.20;99.90
2603;DHT22;1311;47.966;7.958;2022-09-23T15:19:18;20.00;99.90
2603;DHT22;1311;47.966;7.958;2022-09-23T15:21:46;19.90;99.90
2603;DHT22;1311;47.966;7.958;2022-09-23T15:24:35;19.90;99.90
2603;DHT22;1311;47.966;7.958;2022-09-23T15:27:10;19.90;99.90
2603;DHT22;1311;47.966;7.958;2022-09-23T15:29:42;19.90;99.90
2603;DHT22;1311;47.966;7.958;2022-09-23T15:32:10;19.80;99.90
2603;DHT22;1311;47.966;7.958;2022-09-23T15:34:37;19.70;99.90
2603;DHT22;1311;47.966;7.958;2022-09-23T15:37:03;19.80;99.90
2603;DHT22;1311;47.966;7.958;2022-09-23T15:39:30;19.70;99.90
2603;DHT22;1311;47.966;7.958;2022-09-23T15:41:57;19.60;99.90
2603;DHT22;1311;47.966;7.958;2022-09-23T15:46:57;19.60;99.90
2603;DHT22;1311;47.966;7.958;2022-09-23T15:49:26;19.60;99.90
2603;DHT22;1311;47.966;7.958;2022-09-23T15:51:54;19.50;99.90
2603;DHT22;1311;47.966;7.958;2022-09-23T15:54:23;19.40;99.90
2603;DHT22;1311;47.966;7.958;2022-09-23T15:56:50;20.50;99.90
2603;DHT22;1311;47.966;7.958;2022-09-23T15:59:16;19.40;99.90
2603;DHT22;1311;47.966;7.958;2022-09-23T16:01:44;19.40;99.90
2603;DHT22;1311;47.966;7.958;2022-09-23T16:06:42;19.30;99.90
2603;DHT22;1311;47.966;7.958;2022-09-23T16:09:09;19.30;99.90
2603;DHT22;1311;47.966;7.958;2022-09-23T16:11:37;19.20;99.90
2603;DHT22;1311;47.966;7.958;2022-09-23T16:14:07;19.20;99.90
2603;DHT22;1311;47.966;7.958;2022-09-23T16:16:35;19.20;99.90
2603;DHT22;1311;47.966;7.958;2022-09-23T16:19:02;19.10;99.90
2603;DHT22;1311;47.966;7.958;2022-09-23T16:21:29;19.00;99.90
2603;DHT22;1311;47.966;7.958;2022-09-23T16:23:57;18.90;99.90
2603;DHT22;1311;47.966;7.958;2022-09-23T16:26:24;18.90;99.90
2603;DHT22;1311;47.966;7.958;2022-09-23T16:28:52;18.70;99.90
2603;DHT22;1311;47.966;7.958;2022-09-23T16:31:19;18.70;99.90
2603;DHT22;1311;47.966;7.958;2022-09-23T16:33:47;18.60;99.90
2603;DHT22;1311;47.966;7.958;2022-09-23T16:36:16;18.60;99.90
2603;DHT22;1311;47.966;7.958;2022-09-23T16:38:46;18.50;99.90
2603;DHT22;1311;47.966;7.958;2022-09-23T16:41:14;18.50;99.90
2603;DHT22;1311;47.966;7.958;2022-09-23T16:43:41;18.40;99.90
2603;DHT22;1311;47.966;7.958;2022-09-23T16:46:10;18.30;99.90
2603;DHT22;1311;47.966;7.958;2022-09-23T16:48:37;18.20;99.90
2603;DHT22;1311;47.966;7.958;2022-09-23T16:51:05;18.10;99.90
2603;DHT22;1311;47.966;7.958;2022-09-23T16:53:32;18.10;99.90
2603;DHT22;1311;47.966;7.958;2022-09-23T16:56:03;18.00;99.90
2603;DHT22;1311;47.966;7.958;2022-09-23T16:58:31;17.90;99.90
2603;DHT22;1311;47.966;7.958;2022-09-23T17:00:58;17.80;99.90
2603;DHT22;1311;47.966;7.958;2022-09-23T17:03:51;17.80;99.90
2603;DHT22;1311;47.966;7.958;2022-09-23T17:06:18;17.70;99.90
2603;DHT22;1311;47.966;7.958;2022-09-23T17:08:47;17.60;99.90
2603;DHT22;1311;47.966;7.958;2022-09-23T17:11:16;17.60;99.90
2603;DHT22;1311;47.966;7.958;2022-09-23T17:13:45;17.50;99.90
2603;DHT22;1311;47.966;7.958;2022-09-23T17:16:21;17.50;99.90